Sao Francisco do Sul, Brazil
Current Conditions -  °F | °C
As of 11:00 PM on Wednesday 22 Oct 2014 (Local Time) from SBJV Reporting Station
Broken Clouds Broken Clouds  
Wind Chill: 63°   Ceiling: 4000
Heat Index: 63°   Visibility: 6mi
Dew Point: 59°   Wind: 1mph
Humidity: 88%   Direction: 120°ESE
Pressure: 30.21"   Gusts: NA
Location:  26.24°S, 48.64°W
Report Text: SBJV 230100Z 12001KT 9999 BKN040 17/15 Q1023
Loading
Personal Weather Stations






























Interactive Weather Map
Tropical Storm Tracking
New forecast layout! Learn more

10-Day Weather Forecast

Advertisements
Track Severe Weather on mobile